sensor_id;sensor_type;location;lat;lon;timestamp;temperature;humidity
5850;DHT22;2951;47.712;9.400;2022-10-16T00:00:29;13.10;99.90
5850;DHT22;2951;47.712;9.400;2022-10-16T00:02:56;13.10;99.90
5850;DHT22;2951;47.712;9.400;2022-10-16T00:05:22;13.10;99.90
5850;DHT22;2951;47.712;9.400;2022-10-16T00:07:49;13.10;99.90
5850;DHT22;2951;47.712;9.400;2022-10-16T00:10:16;13.10;99.90
5850;DHT22;2951;47.712;9.400;2022-10-16T00:12:42;13.10;99.90
5850;DHT22;2951;47.712;9.400;2022-10-16T00:15:09;13.00;99.90
5850;DHT22;2951;47.712;9.400;2022-10-16T00:17:36;12.90;99.90
5850;DHT22;2951;47.712;9.400;2022-10-16T00:20:02;12.90;99.90
5850;DHT22;2951;47.712;9.400;2022-10-16T00:22:29;12.80;99.90
5850;DHT22;2951;47.712;9.400;2022-10-16T00:24:56;12.80;99.90
5850;DHT22;2951;47.712;9.400;2022-10-16T00:27:22;12.80;99.90
5850;DHT22;2951;47.712;9.400;2022-10-16T00:29:50;12.90;99.90
5850;DHT22;2951;47.712;9.400;2022-10-16T00:32:20;13.00;99.90
5850;DHT22;2951;47.712;9.400;2022-10-16T00:34:47;13.00;99.90
5850;DHT22;2951;47.712;9.400;2022-10-16T00:37:14;13.10;99.90
5850;DHT22;2951;47.712;9.400;2022-10-16T00:39:40;13.20;99.90
5850;DHT22;2951;47.712;9.400;2022-10-16T00:42:09;13.20;99.90
5850;DHT22;2951;47.712;9.400;2022-10-16T00:44:51;13.20;99.90
5850;DHT22;2951;47.712;9.400;2022-10-16T00:47:29;13.20;99.90
5850;DHT22;2951;47.712;9.400;2022-10-16T00:50:02;13.30;99.90
5850;DHT22;2951;47.712;9.400;2022-10-16T00:52:31;13.30;99.90
5850;DHT22;2951;47.712;9.400;2022-10-16T00:54:58;13.30;99.90
5850;DHT22;2951;47.712;9.400;2022-10-16T00:57:26;13.40;99.90
5850;DHT22;2951;47.712;9.400;2022-10-16T00:59:53;13.30;99.90
5850;DHT22;2951;47.712;9.400;2022-10-16T01:02:20;13.20;99.90
5850;DHT22;2951;47.712;9.400;2022-10-16T01:04:47;13.10;99.90
5850;DHT22;2951;47.712;9.400;2022-10-16T01:09:52;12.90;99.90
5850;DHT22;2951;47.712;9.400;2022-10-16T01:14:48;12.70;99.90
5850;DHT22;2951;47.712;9.400;2022-10-16T01:17:30;12.80;99.90
5850;DHT22;2951;47.712;9.400;2022-10-16T01:25:22;13.10;99.90
5850;DHT22;2951;47.712;9.400;2022-10-16T01:27:51;13.10;99.90
5850;DHT22;2951;47.712;9.400;2022-10-16T01:30:28;13.20;99.90
5850;DHT22;2951;47.712;9.400;2022-10-16T01:32:57;13.30;99.90
5850;DHT22;2951;47.712;9.400;2022-10-16T01:35:27;13.30;99.90
5850;DHT22;2951;47.712;9.400;2022-10-16T01:37:58;13.40;99.90
5850;DHT22;2951;47.712;9.400;2022-10-16T01:40:27;13.30;99.90
5850;DHT22;2951;47.712;9.400;2022-10-16T01:43:17;13.20;99.90
5850;DHT22;2951;47.712;9.400;2022-10-16T01:45:41;13.10;99.90
5850;DHT22;2951;47.712;9.400;2022-10-16T01:48:11;12.90;99.90
5850;DHT22;2951;47.712;9.400;2022-10-16T01:50:39;12.90;99.90
5850;DHT22;2951;47.712;9.400;2022-10-16T01:53:08;12.90;99.90
5850;DHT22;2951;47.712;9.400;2022-10-16T01:55:37;12.90;99.90
5850;DHT22;2951;47.712;9.400;2022-10-16T01:58:05;12.90;99.90
5850;DHT22;2951;47.712;9.400;2022-10-16T02:00:33;13.00;99.90
5850;DHT22;2951;47.712;9.400;2022-10-16T02:03:01;13.00;99.90
5850;DHT22;2951;47.712;9.400;2022-10-16T02:05:37;12.90;99.90
5850;DHT22;2951;47.712;9.400;2022-10-16T02:08:06;12.90;99.90
5850;DHT22;2951;47.712;9.400;2022-10-16T02:10:33;12.90;99.90
5850;DHT22;2951;47.712;9.400;2022-10-16T02:13:03;12.90;99.90
5850;DHT22;2951;47.712;9.400;2022-10-16T02:15:31;12.90;99.90
5850;DHT22;2951;47.712;9.400;2022-10-16T02:17:58;12.90;99.90
5850;DHT22;2951;47.712;9.400;2022-10-16T02:20:27;12.90;99.90
5850;DHT22;2951;47.712;9.400;2022-10-16T02:22:54;13.00;99.90
5850;DHT22;2951;47.712;9.400;2022-10-16T02:25:26;13.00;99.90
5850;DHT22;2951;47.712;9.400;2022-10-16T02:30:36;13.10;99.90
5850;DHT22;2951;47.712;9.400;2022-10-16T02:33:07;13.10;99.90
5850;DHT22;2951;47.712;9.400;2022-10-16T02:35:35;13.10;99.90
5850;DHT22;2951;47.712;9.400;2022-10-16T02:38:02;13.10;99.90
5850;DHT22;2951;47.712;9.400;2022-10-16T02:40:29;13.20;99.90
5850;DHT22;2951;47.712;9.400;2022-10-16T02:42:56;13.20;99.90
5850;DHT22;2951;47.712;9.400;2022-10-16T02:45:23;13.20;99.90
5850;DHT22;2951;47.712;9.400;2022-10-16T02:47:50;13.30;99.90
5850;DHT22;2951;47.712;9.400;2022-10-16T02:50:17;13.30;99.90
5850;DHT22;2951;47.712;9.400;2022-10-16T02:52:44;13.40;99.90
5850;DHT22;2951;47.712;9.400;2022-10-16T02:55:11;13.40;99.90
5850;DHT22;2951;47.712;9.400;2022-10-16T02:57:37;13.40;99.90
5850;DHT22;2951;47.712;9.400;2022-10-16T03:00:10;13.30;99.90
5850;DHT22;2951;47.712;9.400;2022-10-16T03:02:37;13.30;99.90
5850;DHT22;2951;47.712;9.400;2022-10-16T03:05:04;13.40;99.90
5850;DHT22;2951;47.712;9.400;2022-10-16T03:07:31;13.40;99.90
5850;DHT22;2951;47.712;9.400;2022-10-16T03:09:58;13.30;99.90
5850;DHT22;2951;47.712;9.400;2022-10-16T03:12:27;13.30;99.90
5850;DHT22;2951;47.712;9.400;2022-10-16T03:14:54;13.30;99.90
5850;DHT22;2951;47.712;9.400;2022-10-16T03:17:21;13.20;99.90
5850;DHT22;2951;47.712;9.400;2022-10-16T03:19:47;13.20;99.90
5850;DHT22;2951;47.712;9.400;2022-10-16T03:22:14;13.20;99.90
5850;DHT22;2951;47.712;9.400;2022-10-16T03:24:41;13.20;99.90
5850;DHT22;2951;47.712;9.400;2022-10-16T03:27:08;13.20;99.90
5850;DHT22;2951;47.712;9.400;2022-10-16T03:29:34;13.20;99.90
5850;DHT22;2951;47.712;9.400;2022-10-16T03:32:01;13.20;99.90
5850;DHT22;2951;47.712;9.400;2022-10-16T03:34:28;13.20;99.90
5850;DHT22;2951;47.712;9.400;2022-10-16T03:36:54;13.10;99.90
5850;DHT22;2951;47.712;9.400;2022-10-16T03:39:21;13.10;99.90
5850;DHT22;2951;47.712;9.400;2022-10-16T03:41:48;13.20;99.90
5850;DHT22;2951;47.712;9.400;2022-10-16T03:44:14;13.20;99.90
5850;DHT22;2951;47.712;9.400;2022-10-16T03:46:41;13.20;99.90
5850;DHT22;2951;47.712;9.400;2022-10-16T03:49:08;13.20;99.90
5850;DHT22;2951;47.712;9.400;2022-10-16T03:51:35;13.10;99.90
5850;DHT22;2951;47.712;9.400;2022-10-16T03:54:02;13.10;99.90
5850;DHT22;2951;47.712;9.400;2022-10-16T03:56:28;13.00;99.90
5850;DHT22;2951;47.712;9.400;2022-10-16T03:58:55;13.00;99.90
5850;DHT22;2951;47.712;9.400;2022-10-16T04:01:22;13.00;99.90
5850;DHT22;2951;47.712;9.400;2022-10-16T04:03:48;13.00;99.90
5850;DHT22;2951;47.712;9.400;2022-10-16T04:06:15;13.00;99.90
5850;DHT22;2951;47.712;9.400;2022-10-16T04:08:42;12.90;99.90
5850;DHT22;2951;47.712;9.400;2022-10-16T04:11:09;12.90;99.90
5850;DHT22;2951;47.712;9.400;2022-10-16T04:13:36;12.80;99.90
5850;DHT22;2951;47.712;9.400;2022-10-16T04:16:03;12.70;99.90
5850;DHT22;2951;47.712;9.400;2022-10-16T04:18:29;12.60;99.90
5850;DHT22;2951;47.712;9.400;2022-10-16T04:20:56;12.50;99.90
5850;DHT22;2951;47.712;9.400;2022-10-16T04:23:23;12.40;99.90
5850;DHT22;2951;47.712;9.400;2022-10-16T04:25:50;12.30;99.90
5850;DHT22;2951;47.712;9.400;2022-10-16T04:28:17;12.30;99.90
5850;DHT22;2951;47.712;9.400;2022-10-16T04:30:43;12.40;99.90
5850;DHT22;2951;47.712;9.400;2022-10-16T04:33:10;12.30;99.90
5850;DHT22;2951;47.712;9.400;2022-10-16T04:35:37;12.30;99.90
5850;DHT22;2951;47.712;9.400;2022-10-16T04:38:03;12.40;99.90
5850;DHT22;2951;47.712;9.400;2022-10-16T04:40:30;12.40;99.90
5850;DHT22;2951;47.712;9.400;2022-10-16T04:43:03;12.40;99.90
5850;DHT22;2951;47.712;9.400;2022-10-16T04:45:30;12.40;99.90
5850;DHT22;2951;47.712;9.400;2022-10-16T04:47:57;12.50;99.90
5850;DHT22;2951;47.712;9.400;2022-10-16T04:50:24;12.40;99.90
5850;DHT22;2951;47.712;9.400;2022-10-16T04:52:50;12.50;99.90
5850;DHT22;2951;47.712;9.400;2022-10-16T04:55:17;12.50;99.90
5850;DHT22;2951;47.712;9.400;2022-10-16T04:57:44;12.40;99.90
5850;DHT22;2951;47.712;9.400;2022-10-16T05:00:10;12.50;99.90
5850;DHT22;2951;47.712;9.400;2022-10-16T05:02:37;12.40;99.90
5850;DHT22;2951;47.712;9.400;2022-10-16T05:05:04;12.50;99.90
5850;DHT22;2951;47.712;9.400;2022-10-16T05:07:31;12.50;99.90
5850;DHT22;2951;47.712;9.400;2022-10-16T05:09:58;12.40;99.90
5850;DHT22;2951;47.712;9.400;2022-10-16T05:12:24;12.40;99.90
5850;DHT22;2951;47.712;9.400;2022-10-16T05:14:51;12.50;99.90
5850;DHT22;2951;47.712;9.400;2022-10-16T05:17:18;12.50;99.90
5850;DHT22;2951;47.712;9.400;2022-10-16T05:19:44;12.40;99.90
5850;DHT22;2951;47.712;9.400;2022-10-16T05:22:11;12.40;99.90
5850;DHT22;2951;47.712;9.400;2022-10-16T05:24:38;12.40;99.90
5850;DHT22;2951;47.712;9.400;2022-10-16T05:27:04;12.50;99.90
5850;DHT22;2951;47.712;9.400;2022-10-16T05:29:31;12.60;99.90
5850;DHT22;2951;47.712;9.400;2022-10-16T05:31:58;12.60;99.90
5850;DHT22;2951;47.712;9.400;2022-10-16T05:34:25;12.60;99.90
5850;DHT22;2951;47.712;9.400;2022-10-16T05:36:51;12.50;99.90
5850;DHT22;2951;47.712;9.400;2022-10-16T05:39:18;12.60;99.90
5850;DHT22;2951;47.712;9.400;2022-10-16T05:41:45;12.60;99.90
5850;DHT22;2951;47.712;9.400;2022-10-16T05:44:12;12.60;99.90
5850;DHT22;2951;47.712;9.400;2022-10-16T05:46:38;12.60;99.90
5850;DHT22;2951;47.712;9.400;2022-10-16T05:49:05;12.60;99.90
5850;DHT22;2951;47.712;9.400;2022-10-16T05:51:32;12.60;99.90
5850;DHT22;2951;47.712;9.400;2022-10-16T05:53:58;12.60;99.90
5850;DHT22;2951;47.712;9.400;2022-10-16T05:56:25;12.70;99.90
5850;DHT22;2951;47.712;9.400;2022-10-16T05:58:52;12.70;99.90
5850;DHT22;2951;47.712;9.400;2022-10-16T06:01:19;12.70;99.90
5850;DHT22;2951;47.712;9.400;2022-10-16T06:03:47;12.70;99.90
5850;DHT22;2951;47.712;9.400;2022-10-16T06:06:15;12.70;99.90
5850;DHT22;2951;47.712;9.400;2022-10-16T06:08:42;12.70;99.90
5850;DHT22;2951;47.712;9.400;2022-10-16T06:11:10;12.80;99.90
5850;DHT22;2951;47.712;9.400;2022-10-16T06:13:37;12.90;99.90
5850;DHT22;2951;47.712;9.400;2022-10-16T06:16:03;12.90;99.90
5850;DHT22;2951;47.712;9.400;2022-10-16T06:18:30;13.00;99.90
5850;DHT22;2951;47.712;9.400;2022-10-16T06:20:57;13.00;99.90
5850;DHT22;2951;47.712;9.400;2022-10-16T06:23:24;13.10;99.90
5850;DHT22;2951;47.712;9.400;2022-10-16T06:25:51;13.20;99.90
5850;DHT22;2951;47.712;9.400;2022-10-16T06:28:18;13.20;99.90
5850;DHT22;2951;47.712;9.400;2022-10-16T06:30:45;13.30;99.90
5850;DHT22;2951;47.712;9.400;2022-10-16T06:33:12;13.40;99.90
5850;DHT22;2951;47.712;9.400;2022-10-16T06:35:39;13.50;99.90
5850;DHT22;2951;47.712;9.400;2022-10-16T06:38:05;13.60;99.90
5850;DHT22;2951;47.712;9.400;2022-10-16T06:40:32;13.70;99.90
5850;DHT22;2951;47.712;9.400;2022-10-16T06:42:59;13.90;99.90
5850;DHT22;2951;47.712;9.400;2022-10-16T06:45:25;14.00;99.90
5850;DHT22;2951;47.712;9.400;2022-10-16T06:47:52;14.10;99.90
5850;DHT22;2951;47.712;9.400;2022-10-16T06:50:19;14.30;99.90
5850;DHT22;2951;47.712;9.400;2022-10-16T06:52:45;14.30;99.90
5850;DHT22;2951;47.712;9.400;2022-10-16T06:55:12;14.40;99.90
5850;DHT22;2951;47.712;9.400;2022-10-16T06:57:39;14.40;99.90
5850;DHT22;2951;47.712;9.400;2022-10-16T07:00:06;14.40;99.90
5850;DHT22;2951;47.712;9.400;2022-10-16T07:02:32;14.50;99.90
5850;DHT22;2951;47.712;9.400;2022-10-16T07:04:59;14.60;99.90
5850;DHT22;2951;47.712;9.400;2022-10-16T07:07:26;14.60;99.90
5850;DHT22;2951;47.712;9.400;2022-10-16T07:09:53;14.70;99.90
5850;DHT22;2951;47.712;9.400;2022-10-16T07:12:19;14.70;99.90
5850;DHT22;2951;47.712;9.400;2022-10-16T07:14:46;14.90;99.90
5850;DHT22;2951;47.712;9.400;2022-10-16T07:17:12;14.90;99.90
5850;DHT22;2951;47.712;9.400;2022-10-16T07:19:39;14.90;99.90
5850;DHT22;2951;47.712;9.400;2022-10-16T07:22:06;14.90;99.90
5850;DHT22;2951;47.712;9.400;2022-10-16T07:24:32;15.00;99.90
5850;DHT22;2951;47.712;9.400;2022-10-16T07:26:59;15.10;99.90
5850;DHT22;2951;47.712;9.400;2022-10-16T07:29:26;15.00;99.90
5850;DHT22;2951;47.712;9.400;2022-10-16T07:31:52;15.00;99.90
5850;DHT22;2951;47.712;9.400;2022-10-16T07:34:21;15.00;99.90
5850;DHT22;2951;47.712;9.400;2022-10-16T07:36:48;14.90;99.90
5850;DHT22;2951;47.712;9.400;2022-10-16T07:39:16;14.90;99.90
5850;DHT22;2951;47.712;9.400;2022-10-16T07:41:42;14.90;99.90
5850;DHT22;2951;47.712;9.400;2022-10-16T07:44:09;15.00;99.90
5850;DHT22;2951;47.712;9.400;2022-10-16T07:46:36;14.90;99.90
5850;DHT22;2951;47.712;9.400;2022-10-16T07:49:03;15.00;99.90
5850;DHT22;2951;47.712;9.400;2022-10-16T07:51:29;15.00;99.90
5850;DHT22;2951;47.712;9.400;2022-10-16T07:53:56;15.00;99.90
5850;DHT22;2951;47.712;9.400;2022-10-16T07:56:23;15.10;99.90
5850;DHT22;2951;47.712;9.400;2022-10-16T07:58:49;15.30;99.90
5850;DHT22;2951;47.712;9.400;2022-10-16T08:01:16;15.50;99.90
5850;DHT22;2951;47.712;9.400;2022-10-16T08:03:47;15.70;99.90
5850;DHT22;2951;47.712;9.400;2022-10-16T08:06:14;15.80;99.90
5850;DHT22;2951;47.712;9.400;2022-10-16T08:08:41;15.90;99.90
5850;DHT22;2951;47.712;9.400;2022-10-16T08:11:08;15.90;99.90
5850;DHT22;2951;47.712;9.400;2022-10-16T08:13:35;15.80;99.90
5850;DHT22;2951;47.712;9.400;2022-10-16T08:16:01;15.80;99.90
5850;DHT22;2951;47.712;9.400;2022-10-16T08:18:28;15.80;99.90
5850;DHT22;2951;47.712;9.400;2022-10-16T08:20:55;15.80;99.90
5850;DHT22;2951;47.712;9.400;2022-10-16T08:23:23;15.90;99.90
5850;DHT22;2951;47.712;9.400;2022-10-16T08:25:49;16.10;99.90
5850;DHT22;2951;47.712;9.400;2022-10-16T08:28:16;16.10;99.90
5850;DHT22;2951;47.712;9.400;2022-10-16T08:30:43;16.30;99.90
5850;DHT22;2951;47.712;9.400;2022-10-16T08:33:09;16.40;99.90
5850;DHT22;2951;47.712;9.400;2022-10-16T08:35:36;16.60;99.90
5850;DHT22;2951;47.712;9.400;2022-10-16T08:38:03;16.80;99.90
5850;DHT22;2951;47.712;9.400;2022-10-16T08:40:31;16.80;99.90
5850;DHT22;2951;47.712;9.400;2022-10-16T08:45:43;17.10;99.90
5850;DHT22;2951;47.712;9.400;2022-10-16T08:48:14;17.20;99.90
5850;DHT22;2951;47.712;9.400;2022-10-16T08:50:44;17.20;99.90
5850;DHT22;2951;47.712;9.400;2022-10-16T08:53:14;17.30;99.90
5850;DHT22;2951;47.712;9.400;2022-10-16T08:55:46;17.40;99.90
5850;DHT22;2951;47.712;9.400;2022-10-16T08:58:15;17.40;99.90
5850;DHT22;2951;47.712;9.400;2022-10-16T09:00:43;17.40;99.90
5850;DHT22;2951;47.712;9.400;2022-10-16T09:06:02;17.50;99.90
5850;DHT22;2951;47.712;9.400;2022-10-16T09:08:38;17.50;99.90
5850;DHT22;2951;47.712;9.400;2022-10-16T09:13:48;17.50;99.90
5850;DHT22;2951;47.712;9.400;2022-10-16T09:18:45;17.50;99.90
5850;DHT22;2951;47.712;9.400;2022-10-16T09:21:30;17.60;99.90
5850;DHT22;2951;47.712;9.400;2022-10-16T09:24:09;17.60;99.90
5850;DHT22;2951;47.712;9.400;2022-10-16T09:26:37;17.70;99.90
5850;DHT22;2951;47.712;9.400;2022-10-16T09:29:04;17.80;99.90
5850;DHT22;2951;47.712;9.400;2022-10-16T09:31:30;17.90;99.90
5850;DHT22;2951;47.712;9.400;2022-10-16T09:34:00;18.20;99.90
5850;DHT22;2951;47.712;9.400;2022-10-16T09:36:36;18.30;99.90
5850;DHT22;2951;47.712;9.400;2022-10-16T09:39:09;18.40;99.90
5850;DHT22;2951;47.712;9.400;2022-10-16T09:41:37;18.50;99.90
5850;DHT22;2951;47.712;9.400;2022-10-16T09:44:04;18.40;99.90
5850;DHT22;2951;47.712;9.400;2022-10-16T09:46:33;18.40;99.90
5850;DHT22;2951;47.712;9.400;2022-10-16T09:51:36;18.50;99.90
5850;DHT22;2951;47.712;9.400;2022-10-16T09:56:36;18.50;99.90
5850;DHT22;2951;47.712;9.400;2022-10-16T09:59:10;18.60;99.90
5850;DHT22;2951;47.712;9.400;2022-10-16T10:04:04;18.70;99.90
5850;DHT22;2951;47.712;9.400;2022-10-16T10:06:33;18.80;99.90
5850;DHT22;2951;47.712;9.400;2022-10-16T10:09:15;18.80;99.90
5850;DHT22;2951;47.712;9.400;2022-10-16T10:11:50;18.90;99.90
5850;DHT22;2951;47.712;9.400;2022-10-16T10:14:28;19.00;99.90
5850;DHT22;2951;47.712;9.400;2022-10-16T10:17:11;19.10;99.90
5850;DHT22;2951;47.712;9.400;2022-10-16T10:19:39;19.30;99.90
5850;DHT22;2951;47.712;9.400;2022-10-16T10:24:43;19.40;99.90
5850;DHT22;2951;47.712;9.400;2022-10-16T10:27:12;19.50;99.90
5850;DHT22;2951;47.712;9.400;2022-10-16T10:37:44;19.60;99.90
5850;DHT22;2951;47.712;9.400;2022-10-16T10:45:51;19.50;99.90
5850;DHT22;2951;47.712;9.400;2022-10-16T10:48:24;19.50;99.90
5850;DHT22;2951;47.712;9.400;2022-10-16T10:51:07;19.50;99.90
5850;DHT22;2951;47.712;9.400;2022-10-16T11:01:16;19.80;99.90
5850;DHT22;2951;47.712;9.400;2022-10-16T11:06:21;20.00;99.90
5850;DHT22;2951;47.712;9.400;2022-10-16T11:08:55;20.00;99.90
5850;DHT22;2951;47.712;9.400;2022-10-16T11:11:46;20.10;99.90
5850;DHT22;2951;47.712;9.400;2022-10-16T11:16:52;20.20;99.90
5850;DHT22;2951;47.712;9.400;2022-10-16T11:22:17;20.40;99.90
5850;DHT22;2951;47.712;9.400;2022-10-16T11:24:47;20.50;99.90
5850;DHT22;2951;47.712;9.400;2022-10-16T11:27:16;20.60;99.90
5850;DHT22;2951;47.712;9.400;2022-10-16T11:29:45;20.70;99.90
5850;DHT22;2951;47.712;9.400;2022-10-16T11:32:21;20.90;99.90
5850;DHT22;2951;47.712;9.400;2022-10-16T11:34:50;21.00;99.90
5850;DHT22;2951;47.712;9.400;2022-10-16T11:37:23;21.10;99.90
5850;DHT22;2951;47.712;9.400;2022-10-16T11:39:52;21.20;99.90
5850;DHT22;2951;47.712;9.400;2022-10-16T11:42:21;21.30;99.90
5850;DHT22;2951;47.712;9.400;2022-10-16T11:50:41;21.30;99.90
5850;DHT22;2951;47.712;9.400;2022-10-16T11:53:13;21.30;99.90
5850;DHT22;2951;47.712;9.400;2022-10-16T11:55:42;21.40;99.90
5850;DHT22;2951;47.712;9.400;2022-10-16T11:58:15;21.50;99.90
5850;DHT22;2951;47.712;9.400;2022-10-16T12:00:47;21.40;99.90
5850;DHT22;2951;47.712;9.400;2022-10-16T12:03:22;21.40;99.90
5850;DHT22;2951;47.712;9.400;2022-10-16T12:05:58;21.50;99.90
5850;DHT22;2951;47.712;9.400;2022-10-16T12:08:28;21.60;99.90
5850;DHT22;2951;47.712;9.400;2022-10-16T12:11:03;21.70;99.90
5850;DHT22;2951;47.712;9.400;2022-10-16T12:13:36;21.80;99.90
5850;DHT22;2951;47.712;9.400;2022-10-16T12:18:43;22.30;99.90
5850;DHT22;2951;47.712;9.400;2022-10-16T12:21:10;22.40;99.90
5850;DHT22;2951;47.712;9.400;2022-10-16T12:23:46;22.40;99.90
5850;DHT22;2951;47.712;9.400;2022-10-16T12:26:14;22.30;99.90
5850;DHT22;2951;47.712;9.400;2022-10-16T12:28:49;22.30;99.90
5850;DHT22;2951;47.712;9.400;2022-10-16T12:31:18;22.50;99.90
5850;DHT22;2951;47.712;9.400;2022-10-16T12:34:01;22.50;99.90
5850;DHT22;2951;47.712;9.400;2022-10-16T12:36:34;22.60;99.90
5850;DHT22;2951;47.712;9.400;2022-10-16T12:39:01;22.60;99.90
5850;DHT22;2951;47.712;9.400;2022-10-16T12:41:29;22.70;99.90
5850;DHT22;2951;47.712;9.400;2022-10-16T12:43:56;22.60;99.90
5850;DHT22;2951;47.712;9.400;2022-10-16T12:46:33;22.70;99.90
5850;DHT22;2951;47.712;9.400;2022-10-16T12:49:05;22.80;99.90
5850;DHT22;2951;47.712;9.400;2022-10-16T12:51:36;22.90;99.90
5850;DHT22;2951;47.712;9.400;2022-10-16T12:54:16;22.90;99.90
5850;DHT22;2951;47.712;9.400;2022-10-16T12:56:50;22.80;99.90
5850;DHT22;2951;47.712;9.400;2022-10-16T13:04:55;22.20;99.90
5850;DHT22;2951;47.712;9.400;2022-10-16T13:15:26;21.70;99.90
5850;DHT22;2951;47.712;9.400;2022-10-16T13:20:34;21.80;99.90
5850;DHT22;2951;47.712;9.400;2022-10-16T13:25:55;21.70;99.90
5850;DHT22;2951;47.712;9.400;2022-10-16T13:28:27;21.90;99.90
5850;DHT22;2951;47.712;9.400;2022-10-16T13:30:59;22.00;99.90
5850;DHT22;2951;47.712;9.400;2022-10-16T13:35:56;22.30;99.90
5850;DHT22;2951;47.712;9.400;2022-10-16T13:38:27;22.40;99.90
5850;DHT22;2951;47.712;9.400;2022-10-16T13:40:58;22.50;99.90
5850;DHT22;2951;47.712;9.400;2022-10-16T13:43:32;22.60;99.90
5850;DHT22;2951;47.712;9.400;2022-10-16T13:46:04;22.60;99.90
5850;DHT22;2951;47.712;9.400;2022-10-16T13:48:32;22.50;99.90
5850;DHT22;2951;47.712;9.400;2022-10-16T13:51:00;22.60;99.90
5850;DHT22;2951;47.712;9.400;2022-10-16T13:53:26;22.80;99.90
5850;DHT22;2951;47.712;9.400;2022-10-16T13:55:53;23.10;99.90
5850;DHT22;2951;47.712;9.400;2022-10-16T13:58:20;23.40;99.90
5850;DHT22;2951;47.712;9.400;2022-10-16T14:03:43;24.20;99.90
5850;DHT22;2951;47.712;9.400;2022-10-16T14:06:14;24.90;99.90
5850;DHT22;2951;47.712;9.400;2022-10-16T14:08:43;25.50;99.90
5850;DHT22;2951;47.712;9.400;2022-10-16T14:11:11;25.90;99.90
5850;DHT22;2951;47.712;9.400;2022-10-16T14:13:44;26.20;99.90
5850;DHT22;2951;47.712;9.400;2022-10-16T14:16:18;26.00;99.90
5850;DHT22;2951;47.712;9.400;2022-10-16T14:18:49;25.80;99.90
5850;DHT22;2951;47.712;9.400;2022-10-16T14:21:20;26.00;99.90
5850;DHT22;2951;47.712;9.400;2022-10-16T14:23:47;26.40;99.90
5850;DHT22;2951;47.712;9.400;2022-10-16T14:26:15;26.60;99.90
5850;DHT22;2951;47.712;9.400;2022-10-16T14:28:42;26.70;99.90
5850;DHT22;2951;47.712;9.400;2022-10-16T14:31:26;26.80;99.90
5850;DHT22;2951;47.712;9.400;2022-10-16T14:33:53;26.80;99.90
5850;DHT22;2951;47.712;9.400;2022-10-16T14:36:20;26.70;99.90
5850;DHT22;2951;47.712;9.400;2022-10-16T14:38:49;26.70;99.90
5850;DHT22;2951;47.712;9.400;2022-10-16T14:41:19;26.30;99.90
5850;DHT22;2951;47.712;9.400;2022-10-16T14:43:49;26.00;99.90
5850;DHT22;2951;47.712;9.400;2022-10-16T14:46:18;26.00;99.90
5850;DHT22;2951;47.712;9.400;2022-10-16T14:48:48;25.70;99.90
5850;DHT22;2951;47.712;9.400;2022-10-16T14:51:18;25.80;99.90
5850;DHT22;2951;47.712;9.400;2022-10-16T14:53:46;25.70;99.90
5850;DHT22;2951;47.712;9.400;2022-10-16T14:56:14;25.60;99.90
5850;DHT22;2951;47.712;9.400;2022-10-16T14:58:42;25.40;99.90
5850;DHT22;2951;47.712;9.400;2022-10-16T15:01:09;25.00;99.90
5850;DHT22;2951;47.712;9.400;2022-10-16T15:03:38;24.90;99.90
5850;DHT22;2951;47.712;9.400;2022-10-16T15:06:09;24.70;99.90
5850;DHT22;2951;47.712;9.400;2022-10-16T15:08:36;24.80;99.90
5850;DHT22;2951;47.712;9.400;2022-10-16T15:11:03;25.00;99.90
5850;DHT22;2951;47.712;9.400;2022-10-16T15:13:30;25.00;99.90
5850;DHT22;2951;47.712;9.400;2022-10-16T15:15:56;24.80;99.90
5850;DHT22;2951;47.712;9.400;2022-10-16T15:18:24;24.60;99.90
5850;DHT22;2951;47.712;9.400;2022-10-16T15:20:51;24.30;99.90
5850;DHT22;2951;47.712;9.400;2022-10-16T15:23:19;24.30;99.90
5850;DHT22;2951;47.712;9.400;2022-10-16T15:28:13;24.80;99.90
5850;DHT22;2951;47.712;9.400;2022-10-16T15:30:40;25.10;99.90
5850;DHT22;2951;47.712;9.400;2022-10-16T15:33:11;25.00;99.90
5850;DHT22;2951;47.712;9.400;2022-10-16T15:35:38;25.50;99.90
5850;DHT22;2951;47.712;9.400;2022-10-16T15:38:05;25.40;99.90
5850;DHT22;2951;47.712;9.400;2022-10-16T15:40:32;25.20;99.90
5850;DHT22;2951;47.712;9.400;2022-10-16T15:42:58;25.30;99.90
5850;DHT22;2951;47.712;9.400;2022-10-16T15:45:25;25.30;99.90
5850;DHT22;2951;47.712;9.400;2022-10-16T15:47:52;25.10;99.90
5850;DHT22;2951;47.712;9.400;2022-10-16T15:50:18;24.90;99.90
5850;DHT22;2951;47.712;9.400;2022-10-16T15:52:47;24.30;99.90
5850;DHT22;2951;47.712;9.400;2022-10-16T15:55:13;23.80;99.90
5850;DHT22;2951;47.712;9.400;2022-10-16T15:57:40;23.60;99.90
5850;DHT22;2951;47.712;9.400;2022-10-16T16:00:13;23.20;99.90
5850;DHT22;2951;47.712;9.400;2022-10-16T16:02:40;22.90;99.90
5850;DHT22;2951;47.712;9.400;2022-10-16T16:05:07;22.40;99.90
5850;DHT22;2951;47.712;9.400;2022-10-16T16:07:38;22.00;99.90
5850;DHT22;2951;47.712;9.400;2022-10-16T16:10:05;21.80;99.90
5850;DHT22;2951;47.712;9.400;2022-10-16T16:12:32;21.60;99.90
5850;DHT22;2951;47.712;9.400;2022-10-16T16:14:59;21.30;99.90
5850;DHT22;2951;47.712;9.400;2022-10-16T16:17:30;21.00;99.90
5850;DHT22;2951;47.712;9.400;2022-10-16T16:19:57;20.80;99.90
5850;DHT22;2951;47.712;9.400;2022-10-16T16:22:24;20.60;99.90
5850;DHT22;2951;47.712;9.400;2022-10-16T16:24:50;20.50;99.90
5850;DHT22;2951;47.712;9.400;2022-10-16T16:27:17;20.30;99.90
5850;DHT22;2951;47.712;9.400;2022-10-16T16:29:46;20.20;99.90
5850;DHT22;2951;47.712;9.400;2022-10-16T16:32:13;20.00;99.90
5850;DHT22;2951;47.712;9.400;2022-10-16T16:34:39;19.90;99.90
5850;DHT22;2951;47.712;9.400;2022-10-16T16:37:06;19.70;99.90
5850;DHT22;2951;47.712;9.400;2022-10-16T16:39:33;19.50;99.90
5850;DHT22;2951;47.712;9.400;2022-10-16T16:41:59;19.40;99.90
5850;DHT22;2951;47.712;9.400;2022-10-16T16:44:26;19.30;99.90
5850;DHT22;2951;47.712;9.400;2022-10-16T16:46:53;19.10;99.90
5850;DHT22;2951;47.712;9.400;2022-10-16T16:49:21;19.10;99.90
5850;DHT22;2951;47.712;9.400;2022-10-16T16:51:47;18.90;99.90
5850;DHT22;2951;47.712;9.400;2022-10-16T16:54:14;18.80;99.90
5850;DHT22;2951;47.712;9.400;2022-10-16T16:56:41;18.70;99.90
5850;DHT22;2951;47.712;9.400;2022-10-16T16:59:11;18.60;99.90
5850;DHT22;2951;47.712;9.400;2022-10-16T17:01:38;18.40;99.90
5850;DHT22;2951;47.712;9.400;2022-10-16T17:04:05;18.30;99.90
5850;DHT22;2951;47.712;9.400;2022-10-16T17:06:32;18.20;99.90
5850;DHT22;2951;47.712;9.400;2022-10-16T17:09:00;18.10;99.90
5850;DHT22;2951;47.712;9.400;2022-10-16T17:11:28;17.90;99.90
5850;DHT22;2951;47.712;9.400;2022-10-16T17:13:56;17.80;99.90
5850;DHT22;2951;47.712;9.400;2022-10-16T17:16:23;17.70;99.90
5850;DHT22;2951;47.712;9.400;2022-10-16T17:18:50;17.60;99.90
5850;DHT22;2951;47.712;9.400;2022-10-16T17:21:19;17.50;99.90
5850;DHT22;2951;47.712;9.400;2022-10-16T17:23:46;17.30;99.90
5850;DHT22;2951;47.712;9.400;2022-10-16T17:26:14;17.20;99.90
5850;DHT22;2951;47.712;9.400;2022-10-16T17:28:41;17.10;99.90
5850;DHT22;2951;47.712;9.400;2022-10-16T17:31:12;17.10;99.90
5850;DHT22;2951;47.712;9.400;2022-10-16T17:33:39;17.00;99.90
5850;DHT22;2951;47.712;9.400;2022-10-16T17:36:06;16.80;99.90
5850;DHT22;2951;47.712;9.400;2022-10-16T17:38:34;16.70;99.90
5850;DHT22;2951;47.712;9.400;2022-10-16T17:41:14;16.60;99.90
5850;DHT22;2951;47.712;9.400;2022-10-16T17:43:41;16.60;99.90
5850;DHT22;2951;47.712;9.400;2022-10-16T17:46:08;16.40;99.90
5850;DHT22;2951;47.712;9.400;2022-10-16T17:48:42;16.30;99.90